Time;durP1;ratioP1;P1;durP2;ratioP2;P2;SDS_P1;SDS_P2;PMS_P1;PMS_P2;Temp;Humidity;BMP_temperature;BMP_pressure;BME280_temperature;BME280_humidity;BME280_pressure;Samples;Min_cycle;Max_cycle;Signal;HPM_P1;HPM_P2
2021/05/11 04:01:51;;;;;;;6.15;5.50;;;12.50;99.90;;;;;;5294285;23;20245;-72
2021/05/11 04:04:19;;;;;;;6.15;5.03;;;12.60;99.90;;;;;;4933485;29;20210;-72
2021/05/11 04:06:45;;;;;;;7.60;5.55;;;12.60;99.90;;;;;;4934562;28;20213;-72
2021/05/11 04:09:16;;;;;;;10.57;5.38;;;12.70;99.90;;;;;;4935251;29;20233;-72
2021/05/11 04:17:22;;;;;;;4.82;4.53;;;12.70;99.90;;;;;;4891295;29;20236;-70
2021/05/11 04:19:48;;;;;;;5.60;5.25;;;12.70;99.90;;;;;;4915787;29;20637;-70
2021/05/11 04:22:14;;;;;;;6.53;5.28;;;12.60;99.90;;;;;;4914929;29;20593;-71
2021/05/11 04:24:41;;;;;;;4.97;4.57;;;12.60;99.90;;;;;;4931859;29;20205;-71
2021/05/11 04:27:07;;;;;;;8.38;4.70;;;12.60;99.90;;;;;;4934448;29;20213;-70
2021/05/11 04:29:34;;;;;;;5.85;5.45;;;12.60;99.90;;;;;;4918960;29;20253;-71
2021/05/11 04:32:00;;;;;;;8.20;5.78;;;12.60;99.90;;;;;;4915430;29;20663;-71
2021/05/11 04:34:27;;;;;;;10.02;6.05;;;12.60;99.90;;;;;;4928482;29;20210;-71
2021/05/11 04:36:53;;;;;;;8.10;6.78;;;12.60;99.90;;;;;;4934069;29;20293;-71
2021/05/11 04:39:20;;;;;;;9.32;5.82;;;12.60;99.90;;;;;;4922070;29;20211;-71
2021/05/11 04:41:46;;;;;;;7.20;6.50;;;12.60;99.90;;;;;;4915474;29;20721;-71
2021/05/11 04:44:12;;;;;;;6.57;6.05;;;12.70;99.90;;;;;;4916187;29;20604;-71
2021/05/11 04:46:45;;;;;;;6.78;6.05;;;12.70;99.90;;;;;;4915768;29;20621;-72
2021/05/11 04:49:12;;;;;;;6.15;5.60;;;12.70;99.90;;;;;;4932545;29;20288;-71
2021/05/11 04:51:39;;;;;;;5.97;5.38;;;12.70;99.90;;;;;;4937449;29;20237;-72
2021/05/11 04:54:05;;;;;;;6.95;5.55;;;12.60;99.90;;;;;;4920657;29;20340;-71
2021/05/11 04:56:31;;;;;;;5.22;4.70;;;12.70;99.90;;;;;;4926234;29;20221;-71
2021/05/11 04:58:57;;;;;;;5.78;4.10;;;12.60;99.90;;;;;;4922591;29;20217;-72
2021/05/11 05:01:24;;;;;;;4.65;3.70;;;12.60;99.90;;;;;;4924351;29;20241;-71
2021/05/11 05:03:52;;;;;;;4.80;3.20;;;12.60;99.90;;;;;;4936999;29;20210;-72
2021/05/11 05:06:19;;;;;;;2.80;2.60;;;12.50;99.90;;;;;;4931163;29;20671;-71
2021/05/11 05:08:46;;;;;;;3.53;2.78;;;12.50;99.90;;;;;;4918096;29;20222;-71
2021/05/11 05:11:14;;;;;;;3.08;2.88;;;12.40;99.90;;;;;;4917577;29;20555;-71
2021/05/11 05:13:40;;;;;;;3.38;3.28;;;12.50;99.90;;;;;;4917873;29;20683;-72
2021/05/11 05:16:06;;;;;;;3.08;2.97;;;12.50;99.90;;;;;;4920654;29;20861;-72
2021/05/11 05:18:32;;;;;;;3.30;3.15;;;12.50;99.90;;;;;;4936870;29;20218;-71
2021/05/11 05:20:59;;;;;;;2.92;2.72;;;12.60;99.90;;;;;;4935372;29;20234;-71
2021/05/11 05:23:30;;;;;;;5.00;3.08;;;12.60;99.90;;;;;;4908675;29;20385;-71
2021/05/11 05:26:02;;;;;;;6.05;3.10;;;12.50;99.90;;;;;;4918151;29;20230;-71
2021/05/11 05:28:28;;;;;;;2.88;2.35;;;12.50;99.90;;;;;;4937205;29;20666;-71
2021/05/11 05:30:54;;;;;;;2.83;2.72;;;12.50;99.90;;;;;;4936811;29;20230;-71
2021/05/11 05:33:31;;;;;;;3.65;2.58;;;12.50;99.90;;;;;;4922090;29;20944;-71
2021/05/11 05:35:57;;;;;;;2.97;2.78;;;12.50;99.90;;;;;;4917715;29;21993;-71
2021/05/11 05:38:23;;;;;;;4.63;2.70;;;12.50;99.90;;;;;;4935970;29;20210;-71
2021/05/11 05:40:56;;;;;;;3.60;2.92;;;12.50;99.90;;;;;;4919528;29;20226;-71
2021/05/11 05:43:23;;;;;;;3.42;2.80;;;12.50;99.90;;;;;;4935153;29;20281;-72
2021/05/11 05:45:52;;;;;;;4.85;2.60;;;12.60;99.90;;;;;;4936694;29;20228;-72
2021/05/11 05:48:18;;;;;;;2.78;2.67;;;12.50;99.90;;;;;;4934667;29;20206;-72
2021/05/11 05:50:44;;;;;;;2.63;2.53;;;12.50;99.90;;;;;;4936082;29;20320;-71
2021/05/11 05:53:13;;;;;;;3.55;3.25;;;12.50;99.90;;;;;;4920356;29;20207;-71
2021/05/11 05:55:40;;;;;;;3.22;2.90;;;12.50;99.90;;;;;;4916939;29;20290;-71
2021/05/11 05:58:06;;;;;;;2.67;2.55;;;12.50;99.90;;;;;;4924718;29;20685;-71
2021/05/11 06:00:33;;;;;;;3.85;3.33;;;12.50;99.90;;;;;;4917696;29;20258;-71
2021/05/11 06:03:04;;;;;;;5.30;2.70;;;12.50;99.90;;;;;;4917400;29;20285;-72
2021/05/11 06:05:32;;;;;;;2.90;2.70;;;12.50;99.90;;;;;;4923004;29;20233;-71
2021/05/11 06:07:58;;;;;;;2.88;2.53;;;12.60;99.90;;;;;;4936117;29;20225;-71
2021/05/11 06:10:28;;;;;;;6.68;2.90;;;12.50;99.90;;;;;;4930594;29;20218;-71
2021/05/11 06:12:57;;;;;;;3.30;3.05;;;12.60;99.90;;;;;;4916931;29;20203;-70
2021/05/11 06:18:11;;;;;;;4.10;3.80;;;12.70;99.90;;;;;;4916421;29;20687;-71
2021/05/11 06:20:37;;;;;;;3.92;3.55;;;12.80;99.90;;;;;;4921968;29;20226;-70
2021/05/11 06:23:03;;;;;;;4.82;3.35;;;12.90;99.90;;;;;;4935885;29;20217;-71
2021/05/11 06:25:29;;;;;;;3.97;3.05;;;12.90;99.90;;;;;;4933994;29;20298;-70
2021/05/11 06:27:56;;;;;;;4.00;3.67;;;12.90;99.90;;;;;;4924530;29;20230;-71
2021/05/11 06:30:22;;;;;;;3.40;3.20;;;13.00;99.90;;;;;;4916864;29;20550;-75
2021/05/11 06:32:49;;;;;;;3.75;3.20;;;12.90;99.90;;;;;;4917128;29;20622;-73
2021/05/11 06:35:16;;;;;;;8.98;3.13;;;12.90;99.90;;;;;;4919644;29;20233;-73
2021/05/11 06:37:42;;;;;;;4.32;2.95;;;12.80;99.90;;;;;;4936742;29;20238;-73
2021/05/11 06:40:09;;;;;;;4.00;3.38;;;12.80;99.90;;;;;;4929703;29;20217;-72
2021/05/11 06:42:38;;;;;;;3.28;2.90;;;12.80;99.90;;;;;;4918739;29;20294;-72
2021/05/11 06:45:11;;;;;;;3.58;3.10;;;12.90;99.90;;;;;;4917325;29;20218;-73
2021/05/11 06:47:56;;;;;;;6.70;2.90;;;13.00;99.90;;;;;;4921904;29;20214;-72
2021/05/11 06:50:31;;;;;;;2.70;2.50;;;13.10;99.90;;;;;;4916524;29;20266;-73
2021/05/11 06:53:05;;;;;;;3.15;2.58;;;13.20;99.90;;;;;;4917157;29;20308;-72
2021/05/11 06:55:31;;;;;;;3.05;2.60;;;13.20;99.90;;;;;;4927138;29;20198;-73
2021/05/11 06:58:02;;;;;;;2.50;2.40;;;13.20;99.90;;;;;;4935994;29;20543;-73
2021/05/11 07:00:29;;;;;;;2.58;2.45;;;13.20;99.90;;;;;;4918460;29;20230;-73
2021/05/11 07:02:55;;;;;;;3.30;2.50;;;13.40;99.90;;;;;;4916008;29;20226;-73
2021/05/11 07:05:21;;;;;;;4.18;2.22;;;13.30;99.90;;;;;;4915593;29;20210;-72
2021/05/11 07:08:01;;;;;;;2.60;2.50;;;13.30;99.90;;;;;;4916149;29;20206;-72
2021/05/11 07:10:31;;;;;;;4.97;2.47;;;13.30;99.90;;;;;;4916769;29;20230;-73
2021/05/11 07:13:13;;;;;;;7.03;3.17;;;13.20;99.90;;;;;;4916177;29;20253;-73
2021/05/11 07:15:40;;;;;;;2.75;2.65;;;13.30;99.90;;;;;;4916462;29;20226;-73
2021/05/11 07:18:15;;;;;;;7.65;2.45;;;13.30;99.90;;;;;;4905751;29;20207;-73
2021/05/11 07:20:43;;;;;;;2.35;2.25;;;13.40;99.90;;;;;;4921700;29;20221;-73
2021/05/11 07:23:10;;;;;;;2.88;2.00;;;13.40;99.90;;;;;;4944237;29;20213;-73
2021/05/11 07:25:44;;;;;;;3.42;2.00;;;13.50;99.90;;;;;;4934407;29;20549;-71
2021/05/11 07:31:12;;;;;;;3.93;2.17;;;13.60;99.90;;;;;;4928570;29;20658;-70
2021/05/11 07:33:41;;;;;;;2.60;2.40;;;13.50;99.90;;;;;;4938416;29;20465;-71
2021/05/11 07:36:07;;;;;;;3.03;2.50;;;13.50;99.90;;;;;;4928093;29;20230;-71
2021/05/11 07:38:35;;;;;;;3.10;2.20;;;13.60;99.90;;;;;;4931324;29;20568;-71
2021/05/11 07:41:01;;;;;;;2.60;2.42;;;13.70;99.90;;;;;;4916177;29;20286;-70
2021/05/11 07:43:28;;;;;;;2.78;2.40;;;13.90;99.90;;;;;;4916638;29;20209;-71
2021/05/11 07:49:17;;;;;;;4.50;2.30;;;13.80;99.90;;;;;;4921570;29;20230;-71
2021/05/11 07:52:16;;;;;;;3.70;2.33;;;13.70;99.90;;;;;;4918866;29;21453;-71
2021/05/11 08:03:19;;;;;;;2.28;2.17;;;13.60;99.90;;;;;;4905950;29;20214;-70
2021/05/11 08:06:11;;;;;;;2.28;2.13;;;13.60;99.90;;;;;;4908884;29;20210;-71
2021/05/11 08:14:31;;;;;;;2.25;2.10;;;13.70;99.90;;;;;;4914950;29;20632;-71
2021/05/11 08:16:59;;;;;;;1.73;1.63;;;13.50;99.90;;;;;;4896962;29;20234;-71
2021/05/11 08:27:45;;;;;;;1.73;1.63;;;13.60;99.90;;;;;;4907293;29;20286;-71
2021/05/11 08:30:13;;;;;;;2.03;1.90;;;13.70;99.90;;;;;;4918972;29;20214;-72
2021/05/11 08:32:39;;;;;;;2.03;1.93;;;13.80;99.90;;;;;;4924990;29;20208;-70
2021/05/11 08:35:07;;;;;;;2.37;2.17;;;14.00;99.90;;;;;;4937410;29;20461;-72
2021/05/11 08:37:33;;;;;;;2.23;2.10;;;13.90;99.90;;;;;;4935839;29;20521;-72
2021/05/11 08:39:59;;;;;;;2.37;2.20;;;13.90;99.90;;;;;;4924147;29;20466;-71
2021/05/11 08:42:26;;;;;;;2.55;2.45;;;13.80;99.90;;;;;;4929792;29;20489;-72
2021/05/11 08:44:53;;;;;;;2.00;2.00;;;13.80;99.90;;;;;;4938078;29;20209;-72
2021/05/11 08:47:20;;;;;;;2.10;1.77;;;13.80;99.90;;;;;;4927090;29;20966;-72
2021/05/11 08:49:47;;;;;;;2.83;2.55;;;13.80;99.90;;;;;;4918571;29;20474;-72
2021/05/11 08:52:20;;;;;;;1.90;1.80;;;13.80;99.90;;;;;;4927813;29;20229;-73
2021/05/11 08:55:09;;;;;;;2.17;1.40;;;13.70;99.90;;;;;;4921053;29;20474;-73
2021/05/11 09:06:35;;;;;;;1.67;1.30;;;13.80;99.90;;;;;;4917956;29;20232;-71
2021/05/11 09:09:21;;;;;;;1.43;1.20;;;13.80;99.90;;;;;;4921700;29;20344;-70
2021/05/11 09:25:42;;;;;;;1.55;1.55;;;13.60;99.90;;;;;;4918298;29;20222;-71
2021/05/11 09:28:23;;;;;;;4.82;2.00;;;13.80;99.90;;;;;;4927718;29;20236;-71
2021/05/11 09:30:58;;;;;;;2.85;1.55;;;13.80;99.90;;;;;;4936870;29;20249;-71
2021/05/11 09:33:30;;;;;;;1.20;1.20;;;13.90;99.90;;;;;;4930713;29;20210;-71
2021/05/11 09:56:14;;;;;;;1.40;1.27;;;14.90;99.90;;;;;;4918483;29;20534;-71
2021/05/11 10:42:27;;;;;;;0.87;0.87;;;16.30;99.90;;;;;;4910785;29;20567;-72
2021/05/11 10:48:18;;;;;;;1.23;1.13;;;16.50;99.90;;;;;;4916695;29;20453;-71
2021/05/11 10:50:49;;;;;;;0.77;0.77;;;16.50;99.90;;;;;;4916736;29;20581;-72
2021/05/11 10:53:35;;;;;;;0.90;0.90;;;16.70;99.90;;;;;;4916417;29;20923;-71
2021/05/11 10:56:51;;;;;;;0.83;0.83;;;16.90;99.90;;;;;;4916721;29;20505;-71
2021/05/11 10:59:42;;;;;;;0.90;0.90;;;16.90;99.90;;;;;;4916754;29;20490;-71
2021/05/11 11:02:38;;;;;;;1.80;1.23;;;17.00;99.90;;;;;;4915867;29;20993;-72
2021/05/11 11:05:05;;;;;;;1.30;1.13;;;17.20;99.90;;;;;;4916295;29;20473;-71
2021/05/11 11:07:33;;;;;;;1.10;1.00;;;17.30;99.90;;;;;;4915551;29;20459;-71
2021/05/11 11:10:00;;;;;;;2.27;1.20;;;17.50;99.90;;;;;;4915731;29;20473;-72
2021/05/11 11:12:41;;;;;;;2.20;0.80;;;17.60;99.90;;;;;;4916107;29;20482;-72
2021/05/11 11:15:14;;;;;;;0.83;0.83;;;17.60;99.90;;;;;;4897470;29;20467;-72
2021/05/11 11:17:47;;;;;;;1.37;1.27;;;17.70;99.90;;;;;;4897012;29;20502;-72
2021/05/11 11:20:14;;;;;;;4.93;1.20;;;17.70;99.90;;;;;;4898853;29;20470;-72
2021/05/11 11:25:26;;;;;;;1.10;1.10;;;17.50;99.90;;;;;;4916498;29;20454;-72
2021/05/11 11:27:52;;;;;;;0.87;0.73;;;17.60;99.90;;;;;;4916439;29;20462;-72
2021/05/11 11:30:20;;;;;;;1.23;1.20;;;17.60;99.90;;;;;;4915183;29;20492;-72
2021/05/11 11:32:46;;;;;;;0.93;0.90;;;17.80;99.90;;;;;;4915754;29;20975;-72
2021/05/11 11:35:13;;;;;;;1.23;1.13;;;17.90;99.90;;;;;;4914928;29;20601;-73
2021/05/11 11:37:41;;;;;;;0.90;0.90;;;18.00;99.90;;;;;;4916225;29;20494;-71
2021/05/11 11:40:09;;;;;;;1.10;1.10;;;18.10;99.90;;;;;;4915609;29;21033;-71
2021/05/11 11:42:38;;;;;;;1.10;1.10;;;18.00;99.90;;;;;;4916094;29;20470;-71
2021/05/11 11:45:07;;;;;;;4.00;1.20;;;18.00;99.90;;;;;;4915823;29;20526;-71
2021/05/11 11:47:42;;;;;;;1.57;1.27;;;18.00;99.90;;;;;;4916166;29;20474;-71
2021/05/11 11:50:12;;;;;;;1.40;1.30;;;18.00;99.90;;;;;;4915555;29;20502;-71
2021/05/11 11:52:42;;;;;;;1.20;1.10;;;18.00;99.90;;;;;;4915712;29;20617;-71
2021/05/11 11:55:30;;;;;;;2.13;1.20;;;18.00;99.90;;;;;;4916365;29;20481;-71
2021/05/11 11:57:55;;;;;;;1.33;1.33;;;17.90;99.90;;;;;;4916039;29;20512;-71
2021/05/11 12:00:23;;;;;;;1.47;1.33;;;17.90;99.90;;;;;;4919449;29;20888;-72
2021/05/11 12:02:58;;;;;;;1.23;1.23;;;17.80;99.90;;;;;;4920005;29;20215;-71
2021/05/11 12:05:28;;;;;;;2.00;1.10;;;17.80;99.90;;;;;;4918841;29;20540;-71
2021/05/11 12:08:07;;;;;;;1.30;1.20;;;17.90;99.90;;;;;;4919546;29;20466;-72
2021/05/11 12:10:37;;;;;;;1.10;1.10;;;17.80;99.90;;;;;;4919898;29;20581;-71
2021/05/11 12:13:05;;;;;;;1.30;1.13;;;18.00;99.90;;;;;;4920229;29;20478;-71
2021/05/11 12:15:32;;;;;;;1.57;1.10;;;18.00;99.90;;;;;;4919474;29;20986;-72
2021/05/11 12:18:01;;;;;;;1.27;1.27;;;17.90;99.90;;;;;;4919802;29;20490;-71
2021/05/11 12:20:28;;;;;;;1.30;1.20;;;17.80;99.90;;;;;;4918434;29;20509;-72
2021/05/11 12:23:08;;;;;;;1.33;1.23;;;17.80;99.90;;;;;;4919290;29;20829;-71
2021/05/11 12:25:36;;;;;;;1.00;1.00;;;17.90;99.90;;;;;;4920122;29;20470;-72
2021/05/11 12:28:02;;;;;;;1.70;1.33;;;18.00;99.90;;;;;;4919591;29;20470;-72
2021/05/11 12:30:36;;;;;;;1.43;1.40;;;18.00;99.90;;;;;;4919369;29;20495;-72
2021/05/11 12:33:04;;;;;;;1.30;1.30;;;18.10;99.90;;;;;;4919177;29;20477;-72
2021/05/11 12:35:31;;;;;;;1.70;1.60;;;18.10;99.90;;;;;;4918741;29;20903;-72
2021/05/11 12:38:01;;;;;;;1.07;1.07;;;18.00;99.90;;;;;;4919819;29;20494;-72
2021/05/11 12:40:46;;;;;;;1.37;1.27;;;18.10;99.90;;;;;;4920031;29;20990;-72
2021/05/11 12:43:12;;;;;;;1.57;1.13;;;17.90;99.90;;;;;;4919001;29;20466;-72
2021/05/11 12:45:52;;;;;;;1.73;1.07;;;18.00;99.90;;;;;;4919000;29;20951;-72
2021/05/11 12:48:19;;;;;;;1.17;1.17;;;18.10;99.90;;;;;;4918668;29;20872;-72
2021/05/11 12:50:46;;;;;;;1.90;1.43;;;18.20;99.90;;;;;;4918576;29;20497;-71
2021/05/11 12:53:29;;;;;;;1.03;1.03;;;18.20;99.90;;;;;;4929417;29;20480;-68
2021/05/11 12:56:11;;;;;;;1.07;1.07;;;18.30;99.90;;;;;;4926860;29;20533;-68
2021/05/11 12:58:44;;;;;;;1.50;1.40;;;18.20;99.90;;;;;;4928229;29;20462;-75
2021/05/11 13:01:31;;;;;;;0.93;0.93;;;18.20;99.90;;;;;;4919347;29;20494;-74
2021/05/11 13:13:40;;;;;;;2.50;1.20;;;18.10;99.90;;;;;;4918697;29;20462;-75
2021/05/11 13:15:30;;;;;;;1.23;1.07;;;17.90;99.90;;;;;;4934631;29;20549;-74
2021/05/11 13:20:58;;;;;;;2.53;1.37;;;17.70;99.90;;;;;;4900066;29;20471;-73
2021/05/11 13:25:07;;;;;;;1.87;1.77;;;17.80;99.90;;;;;;4901481;29;20467;-74
2021/05/11 13:26:13;;;;;;;1.40;1.40;;;18.00;99.90;;;;;;4938408;29;20462;-74
2021/05/11 13:28:47;;;;;;;0.93;0.93;;;18.10;99.90;;;;;;4920662;29;20864;-74
2021/05/11 13:31:21;;;;;;;6.63;1.43;;;18.00;99.90;;;;;;4937888;29;20492;-74
2021/05/11 13:33:52;;;;;;;1.00;1.00;;;17.80;99.90;;;;;;4934999;29;20541;-74
2021/05/11 13:36:19;;;;;;;1.60;1.50;;;17.80;99.90;;;;;;4919206;29;20494;-74
2021/05/11 13:38:45;;;;;;;1.67;1.63;;;17.80;99.90;;;;;;4919860;29;20470;-72
2021/05/11 13:41:11;;;;;;;1.47;1.47;;;17.90;99.90;;;;;;4937627;29;20494;-72
2021/05/11 13:43:37;;;;;;;1.63;1.53;;;18.00;99.90;;;;;;4924215;29;20943;-72
2021/05/11 13:46:03;;;;;;;1.20;1.20;;;18.10;99.90;;;;;;4930193;29;20462;-72
2021/05/11 13:48:34;;;;;;;2.17;1.57;;;18.20;99.90;;;;;;4918619;29;20470;-72
2021/05/11 13:51:02;;;;;;;1.57;1.40;;;18.00;99.90;;;;;;4935751;29;20536;-73
2021/05/11 13:53:32;;;;;;;1.43;1.43;;;18.10;99.90;;;;;;4937631;29;20482;-73
2021/05/11 14:04:13;;;;;;;3.07;1.10;;;17.90;99.90;;;;;;4942074;29;20460;-72
2021/05/11 14:06:40;;;;;;;1.53;1.10;;;17.80;99.90;;;;;;4921278;29;20474;-72
2021/05/11 14:09:07;;;;;;;2.73;1.50;;;17.60;99.90;;;;;;4920340;29;20466;-72
2021/05/11 14:11:33;;;;;;;2.00;1.30;;;17.50;99.90;;;;;;4937338;29;20931;-74
2021/05/11 14:13:59;;;;;;;1.60;1.50;;;17.50;99.90;;;;;;4922346;29;20470;-72
2021/05/11 14:16:26;;;;;;;1.10;1.10;;;17.60;99.90;;;;;;4918736;29;20601;-72
2021/05/11 14:18:53;;;;;;;1.40;1.40;;;17.60;99.90;;;;;;4931150;29;20514;-73
2021/05/11 14:21:19;;;;;;;1.60;1.60;;;17.60;99.90;;;;;;4937595;29;20505;-74
2021/05/11 14:23:45;;;;;;;1.10;1.10;;;17.60;99.90;;;;;;4925160;29;20469;-72
2021/05/11 14:26:12;;;;;;;2.20;1.90;;;17.60;99.90;;;;;;4930183;29;20462;-72
2021/05/11 14:28:38;;;;;;;2.23;1.40;;;17.70;99.90;;;;;;4936629;29;20469;-74
2021/05/11 14:31:04;;;;;;;3.30;1.90;;;17.70;99.90;;;;;;4923907;29;20497;-72
2021/05/11 14:33:31;;;;;;;3.20;1.47;;;17.70;99.90;;;;;;4915331;29;20470;-72
2021/05/11 14:35:57;;;;;;;1.50;1.50;;;17.70;99.90;;;;;;4916683;29;20830;-73
2021/05/11 14:38:23;;;;;;;2.10;1.37;;;17.80;99.90;;;;;;4916330;29;20494;-72
2021/05/11 14:40:49;;;;;;;1.50;1.40;;;17.80;99.90;;;;;;4916483;29;20903;-72
2021/05/11 14:43:16;;;;;;;1.23;1.10;;;17.90;99.90;;;;;;4907687;29;20610;-73
2021/05/11 14:45:43;;;;;;;3.03;1.33;;;17.90;99.90;;;;;;4911285;29;20474;-73
2021/05/11 14:48:09;;;;;;;4.27;1.97;;;17.80;99.90;;;;;;4916188;29;20467;-73
2021/05/11 14:50:35;;;;;;;1.30;1.10;;;17.70;99.90;;;;;;4915901;29;20497;-72
2021/05/11 14:53:02;;;;;;;1.80;1.77;;;17.70;99.90;;;;;;4913398;29;21191;-74
2021/05/11 14:55:28;;;;;;;3.07;2.10;;;17.60;99.90;;;;;;4916203;29;20462;-73
2021/05/11 14:57:55;;;;;;;2.47;2.37;;;17.50;99.90;;;;;;4916393;29;20490;-74
2021/05/11 15:00:23;;;;;;;1.80;1.80;;;17.40;99.90;;;;;;4915872;29;20979;-74
2021/05/11 15:02:50;;;;;;;4.37;2.10;;;17.40;99.90;;;;;;4916066;29;20505;-74
2021/05/11 15:05:16;;;;;;;1.97;1.87;;;17.40;99.90;;;;;;4915374;29;20505;-74
2021/05/11 15:07:42;;;;;;;1.77;1.67;;;17.20;99.90;;;;;;4917069;29;20467;-74
2021/05/11 15:10:09;;;;;;;1.50;1.30;;;17.20;99.90;;;;;;4916144;29;20989;-74
2021/05/11 15:12:35;;;;;;;2.40;1.70;;;17.20;99.90;;;;;;4900557;29;20511;-73
2021/05/11 15:15:02;;;;;;;1.43;1.43;;;17.20;99.90;;;;;;4916532;29;20466;-74
2021/05/11 15:20:14;;;;;;;2.07;1.97;;;17.20;99.90;;;;;;4915739;29;20482;-74
2021/05/11 15:22:40;;;;;;;1.57;1.57;;;17.20;99.90;;;;;;4916266;29;20474;-74
2021/05/11 15:25:07;;;;;;;1.70;1.60;;;17.30;99.90;;;;;;4916329;29;20466;-74
2021/05/11 15:27:35;;;;;;;1.50;1.50;;;17.30;99.90;;;;;;4916627;29;20458;-71
2021/05/11 15:30:03;;;;;;;1.47;1.30;;;17.30;99.90;;;;;;4916131;29;20462;-73
2021/05/11 15:32:40;;;;;;;2.17;1.90;;;17.20;99.90;;;;;;4915946;29;20874;-74
2021/05/11 15:35:09;;;;;;;2.10;2.00;;;17.30;99.90;;;;;;4918379;29;20465;-73
2021/05/11 15:37:36;;;;;;;1.70;1.60;;;17.20;99.90;;;;;;4918319;29;20485;-72
2021/05/11 15:40:04;;;;;;;1.73;1.73;;;17.20;99.90;;;;;;4915817;29;20833;-73
2021/05/11 15:42:30;;;;;;;1.60;1.60;;;17.00;99.90;;;;;;4916053;29;20486;-73
2021/05/11 15:44:56;;;;;;;2.43;2.00;;;17.00;99.90;;;;;;4915695;29;20476;-72
2021/05/11 15:47:22;;;;;;;1.53;1.53;;;16.90;99.90;;;;;;4915674;29;20495;-73
2021/05/11 15:49:49;;;;;;;2.37;2.27;;;16.90;99.90;;;;;;4915168;29;20791;-72
2021/05/11 15:52:16;;;;;;;1.67;1.67;;;16.90;99.90;;;;;;4918503;29;21001;-72
2021/05/11 15:54:42;;;;;;;1.63;1.60;;;16.80;99.90;;;;;;4916097;29;20824;-72
2021/05/11 15:57:08;;;;;;;2.80;1.90;;;16.80;99.90;;;;;;4906911;29;20561;-72
2021/05/11 15:59:35;;;;;;;2.50;2.40;;;16.80;99.90;;;;;;4916312;29;20462;-73
2021/05/11 16:02:01;;;;;;;1.90;1.80;;;16.80;99.90;;;;;;4916021;29;20978;-73
2021/05/11 16:04:27;;;;;;;2.03;2.00;;;16.80;99.90;;;;;;4914760;29;20924;-73
2021/05/11 16:06:54;;;;;;;2.63;1.50;;;16.80;99.90;;;;;;4915717;29;20459;-72
2021/05/11 16:09:22;;;;;;;6.53;2.47;;;16.80;99.90;;;;;;4916634;29;20820;-73
2021/05/11 16:11:48;;;;;;;1.60;1.57;;;16.70;99.90;;;;;;4915455;29;20490;-73
2021/05/11 16:14:14;;;;;;;3.30;2.03;;;16.70;99.90;;;;;;4915726;29;20749;-73
2021/05/11 16:16:41;;;;;;;1.63;1.53;;;16.80;99.90;;;;;;4915237;29;20966;-73
2021/05/11 16:19:07;;;;;;;1.60;1.57;;;16.80;99.90;;;;;;4915136;29;20455;-73
2021/05/11 16:21:33;;;;;;;1.87;1.87;;;16.80;99.90;;;;;;4915031;29;20561;-73
2021/05/11 16:24:01;;;;;;;1.90;1.87;;;16.80;99.90;;;;;;4914970;29;20533;-73
2021/05/11 16:26:28;;;;;;;3.63;2.00;;;16.70;99.90;;;;;;4915537;29;20470;-74
2021/05/11 16:28:54;;;;;;;1.37;1.37;;;16.70;99.90;;;;;;4915917;29;20592;-73
2021/05/11 16:31:22;;;;;;;1.50;1.40;;;16.70;99.90;;;;;;4915507;29;20497;-73
2021/05/11 16:33:48;;;;;;;1.50;1.47;;;16.60;99.90;;;;;;4915263;29;20470;-73
2021/05/11 16:36:15;;;;;;;1.60;1.60;;;16.70;99.90;;;;;;4914895;29;20463;-72
2021/05/11 16:38:41;;;;;;;1.50;1.43;;;16.60;99.90;;;;;;4915271;29;20978;-74
2021/05/11 16:41:08;;;;;;;2.37;1.70;;;16.60;99.90;;;;;;4916175;29;20545;-73
2021/05/11 16:43:35;;;;;;;1.37;1.37;;;16.60;99.90;;;;;;4933506;29;20483;-73
2021/05/11 16:46:03;;;;;;;2.00;2.00;;;16.40;99.90;;;;;;4922612;29;20462;-72
2021/05/11 16:48:30;;;;;;;1.50;1.40;;;16.40;99.90;;;;;;4918637;29;20478;-72
2021/05/11 16:50:56;;;;;;;2.00;1.90;;;16.50;99.90;;;;;;4932941;29;20822;-73
2021/05/11 16:53:22;;;;;;;2.90;2.60;;;16.50;99.90;;;;;;4932683;29;20461;-73
2021/05/11 16:55:48;;;;;;;2.20;2.10;;;16.50;99.90;;;;;;4938223;29;20476;-73
2021/05/11 16:58:15;;;;;;;2.00;2.00;;;16.50;99.90;;;;;;4933101;29;20525;-73
2021/05/11 17:00:42;;;;;;;2.80;2.60;;;16.50;99.90;;;;;;4919042;29;20497;-73
2021/05/11 17:03:09;;;;;;;3.23;2.83;;;16.60;99.90;;;;;;4922632;29;20473;-73
2021/05/11 17:05:36;;;;;;;5.10;2.40;;;16.50;99.90;;;;;;4937776;29;20497;-72
2021/05/11 17:08:03;;;;;;;3.10;3.00;;;16.50;99.90;;;;;;4934776;29;20454;-72
2021/05/11 17:10:31;;;;;;;2.33;2.23;;;16.50;99.90;;;;;;4919198;29;20880;-73
2021/05/11 17:12:59;;;;;;;2.40;2.23;;;16.40;99.90;;;;;;4930620;29;20465;-73
2021/05/11 17:15:27;;;;;;;2.33;2.23;;;16.40;99.90;;;;;;4938228;29;20524;-72
2021/05/11 17:17:54;;;;;;;2.90;2.63;;;16.40;99.90;;;;;;4927082;29;20565;-72
2021/05/11 17:20:21;;;;;;;3.30;2.70;;;16.30;99.90;;;;;;4919485;29;20466;-73
2021/05/11 17:22:49;;;;;;;2.63;2.53;;;16.30;99.90;;;;;;4938092;29;20584;-72
2021/05/11 17:25:16;;;;;;;3.50;3.23;;;16.20;99.90;;;;;;4926538;29;20944;-73
2021/05/11 17:27:42;;;;;;;2.73;2.63;;;16.20;99.90;;;;;;4938244;29;21033;-72
2021/05/11 17:30:10;;;;;;;2.93;2.77;;;16.20;99.90;;;;;;4937498;29;20466;-73
2021/05/11 17:32:38;;;;;;;3.47;3.27;;;16.10;99.90;;;;;;4919219;29;20470;-72
2021/05/11 17:35:05;;;;;;;4.53;4.13;;;16.20;99.90;;;;;;4921817;29;20470;-72
2021/05/11 17:37:32;;;;;;;3.10;3.00;;;16.20;99.90;;;;;;4937135;29;20532;-72
2021/05/11 17:39:58;;;;;;;2.83;2.70;;;16.10;99.90;;;;;;4930754;29;20475;-71
2021/05/11 17:42:24;;;;;;;4.50;2.70;;;16.10;99.90;;;;;;4929918;29;20516;-71
2021/05/11 17:44:52;;;;;;;3.50;3.40;;;16.10;99.90;;;;;;4931965;29;20462;-72
2021/05/11 17:47:18;;;;;;;3.00;2.80;;;16.10;99.90;;;;;;4920857;29;20498;-73
2021/05/11 17:49:45;;;;;;;2.43;2.20;;;16.00;99.90;;;;;;4917768;29;20485;-72
2021/05/11 17:52:12;;;;;;;3.53;2.30;;;16.00;99.90;;;;;;4928899;29;21024;-72
2021/05/11 17:54:38;;;;;;;2.93;2.83;;;16.00;99.90;;;;;;4937260;29;20540;-72
2021/05/11 17:57:05;;;;;;;3.10;2.40;;;16.00;99.90;;;;;;4934036;29;20573;-72
2021/05/11 17:59:31;;;;;;;2.43;2.23;;;15.90;99.90;;;;;;4936828;29;20488;-72
2021/05/11 18:01:58;;;;;;;3.43;2.50;;;15.90;99.90;;;;;;4926248;29;20490;-72
2021/05/11 18:04:24;;;;;;;2.43;2.43;;;15.80;99.90;;;;;;4917672;29;20458;-72
2021/05/11 18:06:52;;;;;;;2.20;2.10;;;15.70;99.90;;;;;;4917242;29;20831;-73
2021/05/11 18:09:18;;;;;;;2.40;2.03;;;15.70;99.90;;;;;;4917576;29;20494;-71
2021/05/11 18:11:44;;;;;;;1.73;1.63;;;15.70;99.90;;;;;;4925855;29;20501;-71
2021/05/11 18:14:11;;;;;;;1.90;1.83;;;15.60;99.90;;;;;;4924218;29;20557;-71
2021/05/11 18:16:37;;;;;;;2.97;1.53;;;15.60;99.90;;;;;;4936803;29;20468;-71
2021/05/11 18:19:04;;;;;;;1.80;1.70;;;15.50;99.90;;;;;;4931343;29;20558;-71
2021/05/11 18:21:30;;;;;;;2.47;2.10;;;15.50;99.90;;;;;;4918061;29;20944;-71
2021/05/11 18:23:57;;;;;;;2.10;2.10;;;15.40;99.90;;;;;;4921169;29;20461;-72
2021/05/11 18:26:25;;;;;;;2.30;2.20;;;15.50;99.90;;;;;;4936033;29;20904;-72
2021/05/11 18:28:51;;;;;;;1.97;1.80;;;15.40;99.90;;;;;;4933449;29;20461;-72
2021/05/11 18:31:18;;;;;;;2.30;2.10;;;15.40;99.90;;;;;;4917305;29;20513;-72
2021/05/11 18:33:45;;;;;;;2.60;2.17;;;15.40;99.90;;;;;;4917469;29;20513;-72
2021/05/11 18:36:18;;;;;;;1.90;1.80;;;15.30;99.90;;;;;;4935292;29;20476;-71
2021/05/11 18:38:51;;;;;;;1.83;1.73;;;15.20;99.90;;;;;;4934919;29;20584;-72
2021/05/11 18:41:18;;;;;;;3.23;1.77;;;15.20;99.90;;;;;;4897974;29;20491;-72
2021/05/11 18:43:44;;;;;;;2.10;1.83;;;15.20;99.90;;;;;;4897462;29;20479;-73
2021/05/11 18:46:10;;;;;;;1.73;1.60;;;15.10;99.90;;;;;;4936008;29;20489;-72
2021/05/11 18:48:37;;;;;;;1.63;1.63;;;15.10;99.90;;;;;;4936869;29;20938;-71
2021/05/11 18:51:04;;;;;;;1.70;1.60;;;15.10;99.90;;;;;;4921546;29;20540;-72
2021/05/11 18:53:30;;;;;;;1.90;1.60;;;15.00;99.90;;;;;;4921023;29;20463;-72
2021/05/11 18:55:57;;;;;;;1.50;1.50;;;15.10;99.90;;;;;;4929453;29;20573;-71
2021/05/11 18:58:28;;;;;;;1.43;1.30;;;15.10;99.90;;;;;;4917009;29;20541;-73
2021/05/11 19:00:54;;;;;;;2.00;1.90;;;15.00;99.90;;;;;;4917249;29;20490;-72
2021/05/11 19:03:20;;;;;;;2.20;2.00;;;15.00;99.90;;;;;;4916424;29;20481;-72
2021/05/11 19:05:48;;;;;;;2.77;2.27;;;14.90;99.90;;;;;;4929320;29;20533;-72
2021/05/11 19:08:14;;;;;;;2.03;2.00;;;14.90;99.90;;;;;;4935531;29;20565;-72
2021/05/11 19:10:41;;;;;;;2.57;2.47;;;14.90;99.90;;;;;;4924477;29;21007;-72
2021/05/11 19:13:09;;;;;;;2.43;2.27;;;14.90;99.90;;;;;;4928302;29;20504;-73
2021/05/11 19:15:36;;;;;;;2.67;2.13;;;14.90;99.90;;;;;;4925940;29;20935;-72
2021/05/11 19:18:02;;;;;;;2.07;2.00;;;14.80;99.90;;;;;;4931787;29;20807;-72
2021/05/11 19:20:28;;;;;;;2.87;2.23;;;14.80;99.90;;;;;;4946141;29;20494;-71
2021/05/11 19:22:54;;;;;;;2.37;2.23;;;14.80;99.90;;;;;;4928600;29;20947;-71
2021/05/11 19:25:21;;;;;;;2.07;1.97;;;14.70;99.90;;;;;;4917517;29;20459;-71
2021/05/11 19:27:49;;;;;;;2.30;1.37;;;14.70;99.90;;;;;;4915816;29;20530;-72
2021/05/11 19:30:16;;;;;;;2.83;1.97;;;14.70;99.90;;;;;;4898486;29;20558;-72